sensor_id;sensor_type;location;lat;lon;timestamp;P1;durP1;ratioP1;P2;durP2;ratioP2
45326;SDS011;31062;49.678;24.560;2023-02-10T00:01:25;114.70;;;37.55;;
45326;SDS011;31062;49.678;24.560;2023-02-10T00:04:12;118.95;;;38.60;;
45326;SDS011;31062;49.678;24.560;2023-02-10T00:06:58;124.32;;;40.55;;
45326;SDS011;31062;49.678;24.560;2023-02-10T00:09:44;138.07;;;42.15;;
45326;SDS011;31062;49.678;24.560;2023-02-10T00:12:29;140.00;;;44.60;;
45326;SDS011;31062;49.678;24.560;2023-02-10T00:15:15;140.23;;;40.97;;
45326;SDS011;31062;49.678;24.560;2023-02-10T00:18:00;112.75;;;38.90;;
45326;SDS011;31062;49.678;24.560;2023-02-10T00:20:46;111.05;;;34.92;;
45326;SDS011;31062;49.678;24.560;2023-02-10T00:23:31;174.38;;;50.90;;
45326;SDS011;31062;49.678;24.560;2023-02-10T00:26:16;169.60;;;54.33;;
45326;SDS011;31062;49.678;24.560;2023-02-10T00:29:04;173.13;;;49.20;;
45326;SDS011;31062;49.678;24.560;2023-02-10T00:31:50;155.07;;;50.08;;
45326;SDS011;31062;49.678;24.560;2023-02-10T00:34:35;138.52;;;44.55;;
45326;SDS011;31062;49.678;24.560;2023-02-10T00:37:21;172.20;;;48.60;;
45326;SDS011;31062;49.678;24.560;2023-02-10T00:40:09;130.30;;;43.05;;
45326;SDS011;31062;49.678;24.560;2023-02-10T00:42:55;144.95;;;45.53;;
45326;SDS011;31062;49.678;24.560;2023-02-10T00:45:41;93.18;;;33.67;;
45326;SDS011;31062;49.678;24.560;2023-02-10T00:48:26;88.55;;;30.48;;
45326;SDS011;31062;49.678;24.560;2023-02-10T00:51:12;85.57;;;31.05;;
45326;SDS011;31062;49.678;24.560;2023-02-10T00:53:58;103.05;;;31.98;;
45326;SDS011;31062;49.678;24.560;2023-02-10T00:56:44;117.07;;;39.20;;
45326;SDS011;31062;49.678;24.560;2023-02-10T00:59:29;123.95;;;40.17;;
45326;SDS011;31062;49.678;24.560;2023-02-10T01:02:15;92.35;;;31.42;;
45326;SDS011;31062;49.678;24.560;2023-02-10T01:05:01;93.50;;;31.75;;
45326;SDS011;31062;49.678;24.560;2023-02-10T01:07:48;79.45;;;27.08;;
45326;SDS011;31062;49.678;24.560;2023-02-10T01:10:34;88.47;;;31.75;;
45326;SDS011;31062;49.678;24.560;2023-02-10T01:13:20;97.25;;;31.23;;
45326;SDS011;31062;49.678;24.560;2023-02-10T01:16:07;85.50;;;27.55;;
45326;SDS011;31062;49.678;24.560;2023-02-10T01:21:44;50.60;;;18.63;;
45326;SDS011;31062;49.678;24.560;2023-02-10T01:24:29;61.17;;;20.40;;
45326;SDS011;31062;49.678;24.560;2023-02-10T01:27:15;49.20;;;19.88;;
45326;SDS011;31062;49.678;24.560;2023-02-10T01:30:01;54.33;;;19.48;;
45326;SDS011;31062;49.678;24.560;2023-02-10T01:32:52;58.97;;;20.52;;
45326;SDS011;31062;49.678;24.560;2023-02-10T01:35:38;51.45;;;20.90;;
45326;SDS011;31062;49.678;24.560;2023-02-10T01:38:25;60.15;;;21.20;;
45326;SDS011;31062;49.678;24.560;2023-02-10T01:41:10;55.30;;;20.08;;
45326;SDS011;31062;49.678;24.560;2023-02-10T01:44:05;70.72;;;21.73;;
45326;SDS011;31062;49.678;24.560;2023-02-10T01:47:11;47.63;;;17.45;;
45326;SDS011;31062;49.678;24.560;2023-02-10T01:49:58;47.55;;;17.65;;
45326;SDS011;31062;49.678;24.560;2023-02-10T01:52:44;61.97;;;20.27;;
45326;SDS011;31062;49.678;24.560;2023-02-10T01:55:31;55.00;;;19.20;;
45326;SDS011;31062;49.678;24.560;2023-02-10T01:58:21;50.88;;;19.40;;
45326;SDS011;31062;49.678;24.560;2023-02-10T02:01:10;61.80;;;18.92;;
45326;SDS011;31062;49.678;24.560;2023-02-10T02:03:55;55.83;;;18.90;;
45326;SDS011;31062;49.678;24.560;2023-02-10T02:06:42;65.75;;;24.25;;
45326;SDS011;31062;49.678;24.560;2023-02-10T02:09:28;40.00;;;19.30;;
45326;SDS011;31062;49.678;24.560;2023-02-10T02:12:21;47.33;;;18.42;;
45326;SDS011;31062;49.678;24.560;2023-02-10T02:15:31;37.90;;;16.60;;
45326;SDS011;31062;49.678;24.560;2023-02-10T02:18:40;40.97;;;17.13;;
45326;SDS011;31062;49.678;24.560;2023-02-10T02:30:43;40.25;;;16.65;;
45326;SDS011;31062;49.678;24.560;2023-02-10T02:36:53;44.65;;;16.40;;
45326;SDS011;31062;49.678;24.560;2023-02-10T02:39:43;36.92;;;17.48;;
45326;SDS011;31062;49.678;24.560;2023-02-10T02:42:30;55.97;;;22.08;;
45326;SDS011;31062;49.678;24.560;2023-02-10T02:45:18;51.80;;;19.45;;
45326;SDS011;31062;49.678;24.560;2023-02-10T02:48:11;60.00;;;21.98;;
45326;SDS011;31062;49.678;24.560;2023-02-10T02:51:25;49.75;;;20.38;;
45326;SDS011;31062;49.678;24.560;2023-02-10T02:54:24;56.10;;;21.23;;
45326;SDS011;31062;49.678;24.560;2023-02-10T02:57:16;63.38;;;21.98;;
45326;SDS011;31062;49.678;24.560;2023-02-10T03:00:18;51.65;;;19.67;;
45326;SDS011;31062;49.678;24.560;2023-02-10T03:03:08;53.90;;;20.55;;
45326;SDS011;31062;49.678;24.560;2023-02-10T03:05:54;57.40;;;22.73;;
45326;SDS011;31062;49.678;24.560;2023-02-10T03:08:43;53.42;;;19.52;;
45326;SDS011;31062;49.678;24.560;2023-02-10T03:11:29;76.75;;;24.50;;
45326;SDS011;31062;49.678;24.560;2023-02-10T03:14:15;65.63;;;24.05;;
45326;SDS011;31062;49.678;24.560;2023-02-10T03:17:00;71.32;;;24.35;;
45326;SDS011;31062;49.678;24.560;2023-02-10T03:19:45;73.65;;;25.75;;
45326;SDS011;31062;49.678;24.560;2023-02-10T03:22:31;60.20;;;23.48;;
45326;SDS011;31062;49.678;24.560;2023-02-10T03:25:16;75.03;;;24.77;;
45326;SDS011;31062;49.678;24.560;2023-02-10T03:28:02;56.90;;;22.88;;
45326;SDS011;31062;49.678;24.560;2023-02-10T03:30:48;55.50;;;19.58;;
45326;SDS011;31062;49.678;24.560;2023-02-10T03:33:35;58.85;;;20.52;;
45326;SDS011;31062;49.678;24.560;2023-02-10T03:36:21;53.65;;;20.95;;
45326;SDS011;31062;49.678;24.560;2023-02-10T03:39:07;61.33;;;22.00;;
45326;SDS011;31062;49.678;24.560;2023-02-10T03:41:52;80.95;;;28.73;;
45326;SDS011;31062;49.678;24.560;2023-02-10T03:44:39;92.95;;;31.83;;
45326;SDS011;31062;49.678;24.560;2023-02-10T03:47:24;100.13;;;33.63;;
45326;SDS011;31062;49.678;24.560;2023-02-10T03:50:09;95.22;;;32.90;;
45326;SDS011;31062;49.678;24.560;2023-02-10T03:52:55;73.60;;;28.52;;
45326;SDS011;31062;49.678;24.560;2023-02-10T03:55:40;63.67;;;23.33;;
45326;SDS011;31062;49.678;24.560;2023-02-10T03:58:26;56.45;;;21.83;;
45326;SDS011;31062;49.678;24.560;2023-02-10T04:01:12;51.20;;;22.13;;
45326;SDS011;31062;49.678;24.560;2023-02-10T04:03:59;52.28;;;22.30;;
45326;SDS011;31062;49.678;24.560;2023-02-10T04:06:45;53.13;;;20.65;;
45326;SDS011;31062;49.678;24.560;2023-02-10T04:09:31;50.22;;;21.40;;
45326;SDS011;31062;49.678;24.560;2023-02-10T04:12:16;52.63;;;22.40;;
45326;SDS011;31062;49.678;24.560;2023-02-10T04:15:02;53.20;;;20.42;;
45326;SDS011;31062;49.678;24.560;2023-02-10T04:17:49;71.78;;;24.55;;
45326;SDS011;31062;49.678;24.560;2023-02-10T04:20:34;87.85;;;25.83;;
45326;SDS011;31062;49.678;24.560;2023-02-10T04:23:19;68.22;;;22.48;;
45326;SDS011;31062;49.678;24.560;2023-02-10T04:26:05;52.60;;;21.70;;
45326;SDS011;31062;49.678;24.560;2023-02-10T04:28:50;45.20;;;18.08;;
45326;SDS011;31062;49.678;24.560;2023-02-10T04:31:36;50.35;;;20.08;;
45326;SDS011;31062;49.678;24.560;2023-02-10T04:34:22;59.95;;;24.25;;
45326;SDS011;31062;49.678;24.560;2023-02-10T04:37:08;45.80;;;20.40;;
45326;SDS011;31062;49.678;24.560;2023-02-10T04:39:54;57.25;;;22.40;;
45326;SDS011;31062;49.678;24.560;2023-02-10T04:42:39;57.28;;;21.65;;
45326;SDS011;31062;49.678;24.560;2023-02-10T04:45:25;48.15;;;20.35;;
45326;SDS011;31062;49.678;24.560;2023-02-10T04:48:11;49.53;;;18.75;;
45326;SDS011;31062;49.678;24.560;2023-02-10T04:50:56;44.47;;;18.65;;
45326;SDS011;31062;49.678;24.560;2023-02-10T04:53:44;42.50;;;16.65;;
45326;SDS011;31062;49.678;24.560;2023-02-10T04:56:32;49.65;;;19.17;;
45326;SDS011;31062;49.678;24.560;2023-02-10T04:59:18;53.92;;;18.20;;
45326;SDS011;31062;49.678;24.560;2023-02-10T05:02:03;65.95;;;22.85;;
45326;SDS011;31062;49.678;24.560;2023-02-10T05:04:49;50.72;;;21.05;;
45326;SDS011;31062;49.678;24.560;2023-02-10T05:07:34;83.18;;;26.77;;
45326;SDS011;31062;49.678;24.560;2023-02-10T05:10:20;89.45;;;30.40;;
45326;SDS011;31062;49.678;24.560;2023-02-10T05:13:05;93.90;;;28.23;;
45326;SDS011;31062;49.678;24.560;2023-02-10T05:15:51;76.80;;;26.75;;
45326;SDS011;31062;49.678;24.560;2023-02-10T05:18:36;86.10;;;31.45;;
45326;SDS011;31062;49.678;24.560;2023-02-10T05:21:24;91.50;;;30.60;;
45326;SDS011;31062;49.678;24.560;2023-02-10T05:24:10;69.07;;;25.35;;
45326;SDS011;31062;49.678;24.560;2023-02-10T05:26:55;63.35;;;24.20;;
45326;SDS011;31062;49.678;24.560;2023-02-10T05:29:41;70.63;;;25.95;;
45326;SDS011;31062;49.678;24.560;2023-02-10T05:32:26;49.03;;;21.67;;
45326;SDS011;31062;49.678;24.560;2023-02-10T05:35:12;48.15;;;18.55;;
45326;SDS011;31062;49.678;24.560;2023-02-10T05:37:57;53.67;;;20.77;;
45326;SDS011;31062;49.678;24.560;2023-02-10T05:40:43;59.22;;;23.45;;
45326;SDS011;31062;49.678;24.560;2023-02-10T05:43:29;49.55;;;21.25;;
45326;SDS011;31062;49.678;24.560;2023-02-10T05:46:15;45.05;;;18.80;;
45326;SDS011;31062;49.678;24.560;2023-02-10T05:49:00;56.47;;;21.38;;
45326;SDS011;31062;49.678;24.560;2023-02-10T05:51:46;51.03;;;22.73;;
45326;SDS011;31062;49.678;24.560;2023-02-10T05:54:34;43.72;;;18.73;;
45326;SDS011;31062;49.678;24.560;2023-02-10T05:57:19;54.67;;;18.80;;
45326;SDS011;31062;49.678;24.560;2023-02-10T06:00:05;51.70;;;16.88;;
45326;SDS011;31062;49.678;24.560;2023-02-10T06:02:58;36.80;;;16.33;;
45326;SDS011;31062;49.678;24.560;2023-02-10T06:05:44;40.03;;;16.33;;
45326;SDS011;31062;49.678;24.560;2023-02-10T06:08:31;50.33;;;18.48;;
45326;SDS011;31062;49.678;24.560;2023-02-10T06:11:16;41.30;;;18.23;;
45326;SDS011;31062;49.678;24.560;2023-02-10T06:14:02;39.55;;;17.52;;
45326;SDS011;31062;49.678;24.560;2023-02-10T06:16:54;34.90;;;16.92;;
45326;SDS011;31062;49.678;24.560;2023-02-10T06:19:41;44.63;;;17.42;;
45326;SDS011;31062;49.678;24.560;2023-02-10T06:22:27;49.58;;;19.08;;
45326;SDS011;31062;49.678;24.560;2023-02-10T06:25:12;36.72;;;16.58;;
45326;SDS011;31062;49.678;24.560;2023-02-10T06:27:58;57.97;;;21.73;;
45326;SDS011;31062;49.678;24.560;2023-02-10T06:30:43;57.05;;;24.35;;
45326;SDS011;31062;49.678;24.560;2023-02-10T06:33:29;49.28;;;21.33;;
45326;SDS011;31062;49.678;24.560;2023-02-10T06:36:15;76.07;;;30.30;;
45326;SDS011;31062;49.678;24.560;2023-02-10T06:39:00;82.05;;;26.02;;
45326;SDS011;31062;49.678;24.560;2023-02-10T06:41:47;71.75;;;23.27;;
45326;SDS011;31062;49.678;24.560;2023-02-10T06:44:33;69.10;;;28.45;;
45326;SDS011;31062;49.678;24.560;2023-02-10T06:47:18;61.58;;;25.25;;
45326;SDS011;31062;49.678;24.560;2023-02-10T06:50:04;64.50;;;25.15;;
45326;SDS011;31062;49.678;24.560;2023-02-10T06:52:50;67.57;;;26.02;;
45326;SDS011;31062;49.678;24.560;2023-02-10T06:55:36;73.25;;;26.63;;
45326;SDS011;31062;49.678;24.560;2023-02-10T06:58:21;63.08;;;24.83;;
45326;SDS011;31062;49.678;24.560;2023-02-10T07:01:17;73.05;;;25.92;;
45326;SDS011;31062;49.678;24.560;2023-02-10T07:04:15;75.03;;;29.38;;
45326;SDS011;31062;49.678;24.560;2023-02-10T07:07:00;100.45;;;32.35;;
45326;SDS011;31062;49.678;24.560;2023-02-10T07:09:51;68.65;;;26.73;;
45326;SDS011;31062;49.678;24.560;2023-02-10T07:13:09;55.42;;;26.40;;
45326;SDS011;31062;49.678;24.560;2023-02-10T07:15:54;73.35;;;24.77;;
45326;SDS011;31062;49.678;24.560;2023-02-10T07:18:40;80.28;;;30.80;;
45326;SDS011;31062;49.678;24.560;2023-02-10T07:21:26;81.32;;;35.33;;
45326;SDS011;31062;49.678;24.560;2023-02-10T07:24:11;64.38;;;25.55;;
45326;SDS011;31062;49.678;24.560;2023-02-10T07:26:57;82.53;;;33.33;;
45326;SDS011;31062;49.678;24.560;2023-02-10T07:29:43;113.43;;;40.30;;
45326;SDS011;31062;49.678;24.560;2023-02-10T07:32:28;92.72;;;34.67;;
45326;SDS011;31062;49.678;24.560;2023-02-10T07:35:14;100.10;;;39.33;;
45326;SDS011;31062;49.678;24.560;2023-02-10T07:38:00;114.43;;;39.97;;
45326;SDS011;31062;49.678;24.560;2023-02-10T07:40:45;89.97;;;34.20;;
45326;SDS011;31062;49.678;24.560;2023-02-10T07:43:31;101.40;;;35.58;;
45326;SDS011;31062;49.678;24.560;2023-02-10T07:46:31;101.82;;;37.67;;
45326;SDS011;31062;49.678;24.560;2023-02-10T07:49:17;103.47;;;35.75;;
45326;SDS011;31062;49.678;24.560;2023-02-10T07:52:02;102.88;;;35.17;;
45326;SDS011;31062;49.678;24.560;2023-02-10T07:54:48;97.90;;;34.75;;
45326;SDS011;31062;49.678;24.560;2023-02-10T07:57:34;71.68;;;28.25;;
45326;SDS011;31062;49.678;24.560;2023-02-10T08:00:24;72.07;;;27.20;;
45326;SDS011;31062;49.678;24.560;2023-02-10T08:03:13;81.60;;;29.33;;
45326;SDS011;31062;49.678;24.560;2023-02-10T08:05:59;88.03;;;29.92;;
45326;SDS011;31062;49.678;24.560;2023-02-10T08:08:45;106.15;;;35.25;;
45326;SDS011;31062;49.678;24.560;2023-02-10T08:11:31;100.03;;;34.55;;
45326;SDS011;31062;49.678;24.560;2023-02-10T08:14:17;58.97;;;24.50;;
45326;SDS011;31062;49.678;24.560;2023-02-10T08:17:02;67.95;;;26.80;;
45326;SDS011;31062;49.678;24.560;2023-02-10T08:19:48;81.40;;;27.77;;
45326;SDS011;31062;49.678;24.560;2023-02-10T08:22:35;81.57;;;29.95;;
45326;SDS011;31062;49.678;24.560;2023-02-10T08:25:21;76.63;;;27.02;;
45326;SDS011;31062;49.678;24.560;2023-02-10T08:28:06;81.47;;;29.85;;
45326;SDS011;31062;49.678;24.560;2023-02-10T08:30:52;64.50;;;24.35;;
45326;SDS011;31062;49.678;24.560;2023-02-10T08:33:38;61.30;;;23.70;;
45326;SDS011;31062;49.678;24.560;2023-02-10T08:36:31;59.42;;;25.13;;
45326;SDS011;31062;49.678;24.560;2023-02-10T08:39:16;71.97;;;27.88;;
45326;SDS011;31062;49.678;24.560;2023-02-10T08:42:02;61.50;;;23.92;;
45326;SDS011;31062;49.678;24.560;2023-02-10T08:44:48;78.72;;;29.00;;
45326;SDS011;31062;49.678;24.560;2023-02-10T08:47:34;83.20;;;30.75;;
45326;SDS011;31062;49.678;24.560;2023-02-10T08:50:20;69.05;;;29.15;;
45326;SDS011;31062;49.678;24.560;2023-02-10T08:53:05;56.40;;;24.00;;
45326;SDS011;31062;49.678;24.560;2023-02-10T08:55:55;55.42;;;22.65;;
45326;SDS011;31062;49.678;24.560;2023-02-10T08:58:45;58.17;;;22.55;;
45326;SDS011;31062;49.678;24.560;2023-02-10T09:01:31;47.78;;;19.75;;
45326;SDS011;31062;49.678;24.560;2023-02-10T09:04:20;40.17;;;16.52;;
45326;SDS011;31062;49.678;24.560;2023-02-10T09:07:06;49.35;;;18.85;;
45326;SDS011;31062;49.678;24.560;2023-02-10T09:09:51;57.67;;;22.80;;
45326;SDS011;31062;49.678;24.560;2023-02-10T09:12:37;54.22;;;22.58;;
45326;SDS011;31062;49.678;24.560;2023-02-10T09:15:24;68.03;;;24.30;;
45326;SDS011;31062;49.678;24.560;2023-02-10T09:18:09;49.05;;;19.98;;
45326;SDS011;31062;49.678;24.560;2023-02-10T09:20:59;45.30;;;19.23;;
45326;SDS011;31062;49.678;24.560;2023-02-10T09:23:46;44.35;;;19.13;;
45326;SDS011;31062;49.678;24.560;2023-02-10T09:26:31;53.03;;;20.23;;
45326;SDS011;31062;49.678;24.560;2023-02-10T09:29:16;43.58;;;19.60;;
45326;SDS011;31062;49.678;24.560;2023-02-10T09:32:02;49.28;;;22.95;;
45326;SDS011;31062;49.678;24.560;2023-02-10T09:34:48;66.00;;;27.75;;
45326;SDS011;31062;49.678;24.560;2023-02-10T09:37:34;67.22;;;28.80;;
45326;SDS011;31062;49.678;24.560;2023-02-10T09:40:27;75.53;;;27.98;;
45326;SDS011;31062;49.678;24.560;2023-02-10T09:46:21;52.38;;;22.08;;
45326;SDS011;31062;49.678;24.560;2023-02-10T09:55:31;14.38;;;7.05;;
45326;SDS011;31062;49.678;24.560;2023-02-10T09:58:22;12.23;;;6.88;;
45326;SDS011;31062;49.678;24.560;2023-02-10T10:01:17;8.90;;;4.18;;
45326;SDS011;31062;49.678;24.560;2023-02-10T10:04:14;10.15;;;5.45;;
45326;SDS011;31062;49.678;24.560;2023-02-10T10:07:23;11.57;;;6.20;;
45326;SDS011;31062;49.678;24.560;2023-02-10T10:10:14;7.82;;;5.10;;
45326;SDS011;31062;49.678;24.560;2023-02-10T10:13:12;14.32;;;6.32;;
45326;SDS011;31062;49.678;24.560;2023-02-10T10:16:15;11.45;;;6.15;;
45326;SDS011;31062;49.678;24.560;2023-02-10T10:31:29;12.63;;;6.05;;
45326;SDS011;31062;49.678;24.560;2023-02-10T10:34:21;10.75;;;5.80;;
45326;SDS011;31062;49.678;24.560;2023-02-10T10:37:13;13.98;;;6.85;;
45326;SDS011;31062;49.678;24.560;2023-02-10T10:40:04;19.27;;;7.72;;
45326;SDS011;31062;49.678;24.560;2023-02-10T10:42:52;20.35;;;6.80;;
45326;SDS011;31062;49.678;24.560;2023-02-10T10:45:46;11.07;;;6.15;;
45326;SDS011;31062;49.678;24.560;2023-02-10T10:48:39;20.15;;;7.55;;
45326;SDS011;31062;49.678;24.560;2023-02-10T10:51:29;15.40;;;7.72;;
45326;SDS011;31062;49.678;24.560;2023-02-10T10:54:15;17.73;;;7.90;;
45326;SDS011;31062;49.678;24.560;2023-02-10T10:57:04;14.50;;;6.28;;
45326;SDS011;31062;49.678;24.560;2023-02-10T10:59:57;11.45;;;6.38;;
45326;SDS011;31062;49.678;24.560;2023-02-10T11:02:57;21.15;;;9.18;;
45326;SDS011;31062;49.678;24.560;2023-02-10T11:05:56;16.48;;;7.07;;
45326;SDS011;31062;49.678;24.560;2023-02-10T11:08:53;23.98;;;7.57;;
45326;SDS011;31062;49.678;24.560;2023-02-10T11:11:41;18.67;;;8.65;;
45326;SDS011;31062;49.678;24.560;2023-02-10T11:14:28;15.88;;;7.20;;
45326;SDS011;31062;49.678;24.560;2023-02-10T11:17:24;20.50;;;7.68;;
45326;SDS011;31062;49.678;24.560;2023-02-10T11:25:54;14.93;;;7.10;;
45326;SDS011;31062;49.678;24.560;2023-02-10T11:28:46;16.20;;;7.22;;
45326;SDS011;31062;49.678;24.560;2023-02-10T11:31:33;12.32;;;7.03;;
45326;SDS011;31062;49.678;24.560;2023-02-10T11:37:12;20.38;;;10.60;;
45326;SDS011;31062;49.678;24.560;2023-02-10T11:40:05;12.90;;;6.95;;
45326;SDS011;31062;49.678;24.560;2023-02-10T11:43:04;11.05;;;6.07;;
45326;SDS011;31062;49.678;24.560;2023-02-10T11:46:00;11.98;;;6.05;;
45326;SDS011;31062;49.678;24.560;2023-02-10T11:48:56;15.18;;;7.50;;
45326;SDS011;31062;49.678;24.560;2023-02-10T11:51:51;12.60;;;8.02;;
45326;SDS011;31062;49.678;24.560;2023-02-10T11:54:39;31.30;;;15.02;;
45326;SDS011;31062;49.678;24.560;2023-02-10T12:01:06;13.07;;;7.40;;
45326;SDS011;31062;49.678;24.560;2023-02-10T12:07:31;10.55;;;6.88;;
45326;SDS011;31062;49.678;24.560;2023-02-10T12:14:01;10.13;;;5.63;;
45326;SDS011;31062;49.678;24.560;2023-02-10T12:17:23;11.77;;;6.30;;
45326;SDS011;31062;49.678;24.560;2023-02-10T12:20:22;8.40;;;5.40;;
45326;SDS011;31062;49.678;24.560;2023-02-10T12:26:24;12.50;;;6.35;;
45326;SDS011;31062;49.678;24.560;2023-02-10T12:29:39;10.73;;;6.00;;
45326;SDS011;31062;49.678;24.560;2023-02-10T12:32:36;12.20;;;6.53;;
45326;SDS011;31062;49.678;24.560;2023-02-10T12:47:38;10.10;;;6.38;;
45326;SDS011;31062;49.678;24.560;2023-02-10T12:50:33;12.13;;;5.45;;
45326;SDS011;31062;49.678;24.560;2023-02-10T12:53:50;10.43;;;5.93;;
45326;SDS011;31062;49.678;24.560;2023-02-10T12:56:45;9.77;;;6.22;;
45326;SDS011;31062;49.678;24.560;2023-02-10T12:59:41;13.77;;;7.68;;
45326;SDS011;31062;49.678;24.560;2023-02-10T13:02:45;12.35;;;7.03;;
45326;SDS011;31062;49.678;24.560;2023-02-10T13:06:17;13.45;;;7.43;;
45326;SDS011;31062;49.678;24.560;2023-02-10T13:09:32;14.32;;;6.65;;
45326;SDS011;31062;49.678;24.560;2023-02-10T13:12:46;15.18;;;8.57;;
45326;SDS011;31062;49.678;24.560;2023-02-10T13:15:37;13.30;;;7.75;;
45326;SDS011;31062;49.678;24.560;2023-02-10T13:18:29;12.65;;;7.38;;
45326;SDS011;31062;49.678;24.560;2023-02-10T13:21:24;12.05;;;8.25;;
45326;SDS011;31062;49.678;24.560;2023-02-10T13:24:28;12.00;;;7.10;;
45326;SDS011;31062;49.678;24.560;2023-02-10T13:27:24;12.90;;;6.65;;
45326;SDS011;31062;49.678;24.560;2023-02-10T13:33:13;12.23;;;6.38;;
45326;SDS011;31062;49.678;24.560;2023-02-10T13:36:13;10.90;;;6.00;;
45326;SDS011;31062;49.678;24.560;2023-02-10T13:42:05;10.52;;;6.47;;
45326;SDS011;31062;49.678;24.560;2023-02-10T13:44:58;13.75;;;6.85;;
45326;SDS011;31062;49.678;24.560;2023-02-10T13:47:54;15.27;;;8.48;;
45326;SDS011;31062;49.678;24.560;2023-02-10T13:50:47;18.65;;;8.35;;
45326;SDS011;31062;49.678;24.560;2023-02-10T13:53:39;15.82;;;7.78;;
45326;SDS011;31062;49.678;24.560;2023-02-10T13:56:28;18.63;;;8.27;;
45326;SDS011;31062;49.678;24.560;2023-02-10T14:02:11;13.65;;;7.00;;
45326;SDS011;31062;49.678;24.560;2023-02-10T14:05:02;16.00;;;7.50;;
45326;SDS011;31062;49.678;24.560;2023-02-10T14:07:48;12.32;;;7.28;;
45326;SDS011;31062;49.678;24.560;2023-02-10T14:10:36;22.95;;;10.32;;
45326;SDS011;31062;49.678;24.560;2023-02-10T14:13:22;16.13;;;8.55;;
45326;SDS011;31062;49.678;24.560;2023-02-10T14:19:02;12.73;;;7.78;;
45326;SDS011;31062;49.678;24.560;2023-02-10T14:21:51;12.07;;;7.82;;
45326;SDS011;31062;49.678;24.560;2023-02-10T14:24:42;12.23;;;7.47;;
45326;SDS011;31062;49.678;24.560;2023-02-10T14:27:35;15.15;;;7.88;;
45326;SDS011;31062;49.678;24.560;2023-02-10T14:30:31;22.73;;;10.50;;
45326;SDS011;31062;49.678;24.560;2023-02-10T14:33:27;25.67;;;11.20;;
45326;SDS011;31062;49.678;24.560;2023-02-10T14:36:16;15.77;;;8.57;;
45326;SDS011;31062;49.678;24.560;2023-02-10T14:39:02;11.57;;;6.88;;
45326;SDS011;31062;49.678;24.560;2023-02-10T14:41:50;14.82;;;7.30;;
45326;SDS011;31062;49.678;24.560;2023-02-10T14:44:41;20.13;;;9.20;;
45326;SDS011;31062;49.678;24.560;2023-02-10T14:47:33;19.90;;;9.45;;
45326;SDS011;31062;49.678;24.560;2023-02-10T14:50:31;12.43;;;6.95;;
45326;SDS011;31062;49.678;24.560;2023-02-10T14:53:20;15.18;;;7.95;;
45326;SDS011;31062;49.678;24.560;2023-02-10T14:56:14;16.38;;;8.45;;
45326;SDS011;31062;49.678;24.560;2023-02-10T14:59:01;18.08;;;9.10;;
45326;SDS011;31062;49.678;24.560;2023-02-10T15:01:47;18.08;;;10.13;;
45326;SDS011;31062;49.678;24.560;2023-02-10T15:04:35;24.48;;;11.15;;
45326;SDS011;31062;49.678;24.560;2023-02-10T15:07:31;19.75;;;10.32;;
45326;SDS011;31062;49.678;24.560;2023-02-10T15:13:20;16.05;;;8.10;;
45326;SDS011;31062;49.678;24.560;2023-02-10T15:16:10;14.40;;;8.30;;
45326;SDS011;31062;49.678;24.560;2023-02-10T15:18:58;14.23;;;8.18;;
45326;SDS011;31062;49.678;24.560;2023-02-10T15:21:45;15.52;;;8.52;;
45326;SDS011;31062;49.678;24.560;2023-02-10T15:24:32;14.95;;;10.57;;
45326;SDS011;31062;49.678;24.560;2023-02-10T15:27:22;14.40;;;9.35;;
45326;SDS011;31062;49.678;24.560;2023-02-10T15:30:08;18.17;;;8.68;;
45326;SDS011;31062;49.678;24.560;2023-02-10T15:33:03;20.00;;;8.77;;
45326;SDS011;31062;49.678;24.560;2023-02-10T15:35:54;21.02;;;10.57;;
45326;SDS011;31062;49.678;24.560;2023-02-10T15:44:42;16.88;;;8.63;;
45326;SDS011;31062;49.678;24.560;2023-02-10T15:47:36;18.52;;;8.45;;
45326;SDS011;31062;49.678;24.560;2023-02-10T15:50:30;11.27;;;7.55;;
45326;SDS011;31062;49.678;24.560;2023-02-10T15:53:18;14.98;;;8.57;;
45326;SDS011;31062;49.678;24.560;2023-02-10T15:56:06;20.67;;;9.70;;
45326;SDS011;31062;49.678;24.560;2023-02-10T15:58:52;25.80;;;11.43;;
45326;SDS011;31062;49.678;24.560;2023-02-10T16:01:37;22.25;;;11.35;;
45326;SDS011;31062;49.678;24.560;2023-02-10T16:04:23;23.70;;;10.98;;
45326;SDS011;31062;49.678;24.560;2023-02-10T16:07:10;27.23;;;11.75;;
45326;SDS011;31062;49.678;24.560;2023-02-10T16:10:02;18.48;;;9.63;;
45326;SDS011;31062;49.678;24.560;2023-02-10T16:12:49;19.35;;;9.05;;
45326;SDS011;31062;49.678;24.560;2023-02-10T16:15:35;15.68;;;8.27;;
45326;SDS011;31062;49.678;24.560;2023-02-10T16:18:22;14.63;;;8.73;;
45326;SDS011;31062;49.678;24.560;2023-02-10T16:21:11;21.23;;;9.35;;
45326;SDS011;31062;49.678;24.560;2023-02-10T16:23:58;18.70;;;8.43;;
45326;SDS011;31062;49.678;24.560;2023-02-10T16:26:44;16.35;;;8.77;;
45326;SDS011;31062;49.678;24.560;2023-02-10T16:29:31;16.77;;;8.75;;
45326;SDS011;31062;49.678;24.560;2023-02-10T16:32:17;19.80;;;9.50;;
45326;SDS011;31062;49.678;24.560;2023-02-10T16:35:02;16.88;;;9.43;;
45326;SDS011;31062;49.678;24.560;2023-02-10T16:37:48;20.70;;;9.40;;
45326;SDS011;31062;49.678;24.560;2023-02-10T16:40:35;21.05;;;9.90;;
45326;SDS011;31062;49.678;24.560;2023-02-10T16:43:22;16.98;;;8.50;;
45326;SDS011;31062;49.678;24.560;2023-02-10T16:46:10;14.32;;;7.90;;
45326;SDS011;31062;49.678;24.560;2023-02-10T16:48:59;18.35;;;9.32;;
45326;SDS011;31062;49.678;24.560;2023-02-10T16:51:45;23.85;;;10.32;;
45326;SDS011;31062;49.678;24.560;2023-02-10T16:54:30;24.27;;;12.43;;
45326;SDS011;31062;49.678;24.560;2023-02-10T16:57:17;48.00;;;16.77;;
45326;SDS011;31062;49.678;24.560;2023-02-10T17:00:03;41.72;;;16.77;;
45326;SDS011;31062;49.678;24.560;2023-02-10T17:02:49;26.08;;;12.10;;
45326;SDS011;31062;49.678;24.560;2023-02-10T17:05:35;28.77;;;12.55;;
45326;SDS011;31062;49.678;24.560;2023-02-10T17:08:23;37.45;;;14.05;;
45326;SDS011;31062;49.678;24.560;2023-02-10T17:11:10;26.35;;;11.73;;
45326;SDS011;31062;49.678;24.560;2023-02-10T17:13:56;24.15;;;10.45;;
45326;SDS011;31062;49.678;24.560;2023-02-10T17:16:44;46.47;;;14.80;;
45326;SDS011;31062;49.678;24.560;2023-02-10T17:19:31;32.30;;;14.25;;
45326;SDS011;31062;49.678;24.560;2023-02-10T17:22:19;39.45;;;14.80;;
45326;SDS011;31062;49.678;24.560;2023-02-10T17:25:04;46.00;;;17.08;;
45326;SDS011;31062;49.678;24.560;2023-02-10T17:27:50;31.88;;;13.93;;
45326;SDS011;31062;49.678;24.560;2023-02-10T17:30:37;22.40;;;10.82;;
45326;SDS011;31062;49.678;24.560;2023-02-10T17:33:26;30.75;;;13.25;;
45326;SDS011;31062;49.678;24.560;2023-02-10T17:36:24;24.38;;;10.75;;
45326;SDS011;31062;49.678;24.560;2023-02-10T17:39:15;19.33;;;10.52;;
45326;SDS011;31062;49.678;24.560;2023-02-10T17:42:12;22.55;;;10.02;;
45326;SDS011;31062;49.678;24.560;2023-02-10T17:44:59;21.98;;;11.43;;
45326;SDS011;31062;49.678;24.560;2023-02-10T17:47:44;15.32;;;8.60;;
45326;SDS011;31062;49.678;24.560;2023-02-10T17:50:32;18.92;;;9.43;;